Time;durP1;ratioP1;P1;durP2;ratioP2;P2;SDS_P1;SDS_P2;PMS_P1;PMS_P2;Temp;Humidity;BMP_temperature;BMP_pressure;BME280_temperature;BME280_humidity;BME280_pressure;Samples;Min_cycle;Max_cycle;Signal;HPM_P1;HPM_P2
2021/03/14 00:02:59;;;;;;;0.93;0.93;;;;;;;0.17;100.00;100523.48;1804201;79;21133;-50
2021/03/14 00:06:00;;;;;;;1.62;0.98;;;;;;;0.20;100.00;100526.27;1801173;78;21110;-50
2021/03/14 00:09:00;;;;;;;1.07;1.07;;;;;;;0.25;100.00;100523.78;1781975;80;21147;-50
2021/03/14 00:12:01;;;;;;;0.23;0.23;;;;;;;0.31;100.00;100517.55;1784631;79;21146;-49
2021/03/14 00:15:01;;;;;;;0.20;0.20;;;;;;;0.39;100.00;100515.97;1783647;79;21542;-49
2021/03/14 00:18:02;;;;;;;4.15;0.70;;;;;;;0.47;100.00;100514.94;1785859;79;21167;-50
2021/03/14 00:21:03;;;;;;;9.30;1.60;;;;;;;0.54;100.00;100518.41;1785534;79;21150;-47
2021/03/14 00:24:04;;;;;;;0.35;0.35;;;;;;;0.62;100.00;100507.44;1785490;80;21146;-47
2021/03/14 00:27:05;;;;;;;2.90;1.17;;;;;;;0.69;100.00;100503.36;1792946;79;21628;-47
2021/03/14 00:30:05;;;;;;;0.85;0.85;;;;;;;0.75;100.00;100506.55;1784357;79;21027;-48
2021/03/14 00:33:06;;;;;;;0.30;0.30;;;;;;;0.83;100.00;100511.69;1729341;82;21141;-47
2021/03/14 00:36:06;;;;;;;0.90;0.75;;;;;;;0.89;100.00;100505.99;1749346;80;21163;-47
2021/03/14 00:39:08;;;;;;;0.42;0.42;;;;;;;0.96;100.00;100505.94;1729320;82;21197;-47
2021/03/14 00:42:09;;;;;;;1.75;0.98;;;;;;;1.01;100.00;100499.39;1747038;80;21618;-48
2021/03/14 00:45:12;;;;;;;0.82;0.82;;;;;;;1.04;100.00;100494.42;1789073;79;21122;-47
2021/03/14 00:48:14;;;;;;;0.78;0.72;;;;;;;1.07;100.00;100491.81;1786692;80;21429;-47
2021/03/14 00:51:15;;;;;;;3.62;0.62;;;;;;;1.10;100.00;100488.69;1735000;82;21655;-47
2021/03/14 00:54:15;;;;;;;0.68;0.68;;;;;;;1.14;100.00;100486.38;1742012;82;21023;-47
2021/03/14 00:57:15;;;;;;;0.62;0.62;;;;;;;1.17;100.00;100484.62;1762416;81;21193;-47
2021/03/14 01:00:17;;;;;;;0.70;0.70;;;;;;;1.21;100.00;100485.31;1717582;83;21150;-47
2021/03/14 01:03:17;;;;;;;0.57;0.57;;;;;;;1.24;100.00;100492.95;1729184;82;21490;-48
2021/03/14 01:06:18;;;;;;;0.55;0.53;;;;;;;1.27;100.00;100491.17;1783879;80;21135;-47
2021/03/14 01:09:18;;;;;;;0.80;0.80;;;;;;;1.28;100.00;100485.25;1756827;81;21170;-47
2021/03/14 01:12:19;;;;;;;1.85;0.57;;;;;;;1.34;100.00;100488.97;1759496;81;21154;-47
2021/03/14 01:15:21;;;;;;;0.35;0.35;;;;;;;1.35;100.00;100478.48;1761432;80;21138;-47
2021/03/14 01:18:23;;;;;;;0.35;0.35;;;;;;;1.31;100.00;100474.57;1786310;80;21161;-47
2021/03/14 01:21:23;;;;;;;1.30;1.02;;;;;;;1.26;100.00;100465.30;1747628;80;21059;-47
2021/03/14 01:24:24;;;;;;;2.25;0.95;;;;;;;1.23;100.00;100471.09;1786461;80;21155;-47
2021/03/14 01:27:24;;;;;;;0.62;0.62;;;;;;;1.18;100.00;100465.54;1786281;80;21106;-47
2021/03/14 01:30:25;;;;;;;0.30;0.30;;;;;;;1.17;100.00;100457.70;1792366;79;21184;-47
2021/03/14 01:33:27;;;;;;;0.85;0.85;;;;;;;1.16;100.00;100445.27;1800593;79;21119;-47
2021/03/14 01:36:27;;;;;;;0.28;0.28;;;;;;;1.18;100.00;100440.50;1813566;79;21127;-48
2021/03/14 01:39:27;;;;;;;0.82;0.47;;;;;;;1.17;100.00;100441.02;1815490;78;21146;-48
2021/03/14 01:42:36;;;;;;;0.78;0.25;;;;;;;1.20;100.00;100447.31;1800668;78;21620;-47
2021/03/14 01:45:36;;;;;;;0.10;0.10;;;;;;;1.20;100.00;100441.92;1795349;79;21561;-47
2021/03/14 01:48:37;;;;;;;2.72;0.50;;;;;;;1.19;100.00;100440.29;1785832;79;21126;-48
2021/03/14 01:51:40;;;;;;;1.92;1.17;;;;;;;1.19;100.00;100444.86;1785181;79;21143;-49
2021/03/14 01:54:41;;;;;;;0.70;0.70;;;;;;;1.18;100.00;100440.50;1785777;80;21450;-47
2021/03/14 01:57:41;;;;;;;0.30;0.30;;;;;;;1.14;100.00;100449.54;1772240;79;21158;-47
2021/03/14 02:00:42;;;;;;;0.20;0.20;;;;;;;1.11;100.00;100449.95;1809389;79;21724;-47
2021/03/14 02:03:43;;;;;;;0.42;0.42;;;;;;;1.07;100.00;100444.19;1785894;80;21129;-47
2021/03/14 02:06:43;;;;;;;0.10;0.10;;;;;;;1.04;100.00;100449.20;1802147;79;21123;-47
2021/03/14 02:09:44;;;;;;;0.57;0.57;;;;;;;1.03;100.00;100447.53;1791121;79;21165;-47
2021/03/14 02:13:07;;;;;;;0.45;0.45;;;;;;;1.00;100.00;100448.78;1791244;80;21520;-47
2021/03/14 02:16:30;;;;;;;0.33;0.33;;;;;;;0.97;100.00;100457.83;1803984;79;21138;-47
2021/03/14 02:19:34;;;;;;;0.65;0.65;;;;;;;0.91;100.00;100447.91;1805861;79;21446;-48
2021/03/14 02:22:36;;;;;;;1.07;0.95;;;;;;;0.85;100.00;100453.12;1813408;79;21136;-47
2021/03/14 02:25:47;;;;;;;0.57;0.57;;;;;;;0.79;100.00;100453.14;1765794;80;21146;-48
2021/03/14 02:28:48;;;;;;;0.30;0.30;;;;;;;0.71;100.00;100460.94;1790019;79;21086;-47
2021/03/14 02:31:48;;;;;;;0.15;0.15;;;;;;;0.62;100.00;100452.30;1757190;81;21134;-47
2021/03/14 02:34:51;;;;;;;1.30;1.20;;;;;;;0.56;100.00;100463.08;1736701;80;21139;-48
2021/03/14 02:37:52;;;;;;;0.20;0.20;;;;;;;0.47;100.00;100461.66;1723190;81;21153;-47
2021/03/14 02:40:52;;;;;;;0.20;0.20;;;;;;;0.38;100.00;100464.59;1717390;83;21175;-48
2021/03/14 02:43:45;;;;;;;0.47;0.47;;;;;;;0.32;100.00;100466.80;1711741;83;21564;-47
2021/03/14 02:46:47;;;;;;;0.30;0.30;;;;;;;0.25;100.00;100464.65;1720825;81;21671;-47
2021/03/14 02:49:47;;;;;;;0.98;0.42;;;;;;;0.16;100.00;100467.25;1759651;81;21437;-48
2021/03/14 02:52:47;;;;;;;0.20;0.20;;;;;;;0.10;100.00;100466.23;1707483;83;21151;-47
2021/03/14 02:55:47;;;;;;;0.10;0.10;;;;;;;0.03;100.00;100470.80;1718732;81;21615;-48
2021/03/14 02:58:47;;;;;;;0.68;0.68;;;;;;;-0.06;100.00;100463.45;1707769;82;21443;-48
2021/03/14 03:01:53;;;;;;;0.70;0.47;;;;;;;-0.12;100.00;100462.14;1747101;81;21437;-48
2021/03/14 03:04:56;;;;;;;0.55;0.55;;;;;;;-0.19;100.00;100456.77;1708050;83;21115;-48
2021/03/14 03:07:59;;;;;;;0.30;0.30;;;;;;;-0.24;100.00;100459.26;1746581;80;21130;-49
2021/03/14 03:11:00;;;;;;;0.80;0.80;;;;;;;-0.29;100.00;100461.74;1780191;79;21115;-48
2021/03/14 03:14:01;;;;;;;0.10;0.10;;;;;;;-0.30;100.00;100464.10;1735507;81;21489;-49
2021/03/14 03:17:02;;;;;;;0.40;0.35;;;;;;;-0.29;100.00;100464.43;1749955;81;21129;-48
2021/03/14 03:20:03;;;;;;;1.32;1.22;;;;;;;-0.30;100.00;100470.81;1727887;83;21142;-48
2021/03/14 03:23:04;;;;;;;0.55;0.55;;;;;;;-0.35;100.00;100467.41;1757303;80;21174;-48
2021/03/14 03:26:07;;;;;;;0.80;0.80;;;;;;;-0.36;100.00;100466.29;1716490;82;21157;-48
2021/03/14 03:29:09;;;;;;;0.20;0.20;;;;;;;-0.37;100.00;100472.19;1759515;81;21176;-48
2021/03/14 03:32:10;;;;;;;0.13;0.13;;;;;;;-0.38;100.00;100467.83;1747112;81;21424;-48
2021/03/14 03:35:14;;;;;;;0.30;0.30;;;;;;;-0.38;100.00;100475.06;1768320;79;21151;-48
2021/03/14 03:38:14;;;;;;;0.20;0.20;;;;;;;-0.34;100.00;100473.63;1777410;79;21141;-48
2021/03/14 03:41:15;;;;;;;0.10;0.10;;;;;;;-0.29;100.00;100475.17;1800681;79;21162;-48
2021/03/14 03:44:16;;;;;;;0.25;0.25;;;;;;;-0.26;100.00;100477.44;1738241;82;21159;-48
2021/03/14 03:47:19;;;;;;;0.78;0.78;;;;;;;-0.23;100.00;100475.67;1738242;82;21117;-48
2021/03/14 03:50:21;;;;;;;1.32;1.32;;;;;;;-0.18;100.00;100479.08;1783702;79;21106;-48
2021/03/14 03:53:21;;;;;;;0.10;0.10;;;;;;;-0.15;100.00;100478.66;1784701;79;21546;-48
2021/03/14 03:56:21;;;;;;;0.10;0.10;;;;;;;-0.12;100.00;100485.80;1745344;81;21874;-48
2021/03/14 03:59:22;;;;;;;0.10;0.10;;;;;;;-0.07;100.00;100475.25;1778765;79;21139;-48
2021/03/14 04:02:22;;;;;;;0.10;0.10;;;;;;;-0.04;100.00;100472.14;1742253;80;21168;-48
2021/03/14 04:05:25;;;;;;;2.02;0.53;;;;;;;-0.01;100.00;100478.43;1783596;79;21127;-48
2021/03/14 04:08:25;;;;;;;0.40;0.40;;;;;;;0.03;100.00;100482.06;1785455;80;21178;-48
2021/03/14 04:11:27;;;;;;;0.15;0.15;;;;;;;0.06;100.00;100478.95;1769791;79;21418;-48
2021/03/14 04:14:27;;;;;;;0.23;0.23;;;;;;;0.08;100.00;100470.98;1754000;80;21162;-48
2021/03/14 04:17:28;;;;;;;0.10;0.10;;;;;;;0.09;100.00;100467.25;1812217;78;21163;-48
2021/03/14 04:20:43;;;;;;;1.27;1.17;;;;;;;0.11;100.00;100474.59;1776830;78;21120;-48
2021/03/14 04:23:45;;;;;;;1.27;0.80;;;;;;;0.13;100.00;100473.88;1756834;81;21505;-48
2021/03/14 04:26:47;;;;;;;0.65;0.65;;;;;;;0.15;100.00;100465.61;1804460;78;21174;-48
2021/03/14 04:29:48;;;;;;;0.10;0.10;;;;;;;0.18;100.00;100466.53;1824203;78;21146;-48
2021/03/14 04:32:48;;;;;;;1.20;1.20;;;;;;;0.24;100.00;100473.73;1801470;78;21106;-48
2021/03/14 04:35:49;;;;;;;0.13;0.13;;;;;;;0.29;100.00;100469.89;1823868;78;21138;-48
2021/03/14 04:38:50;;;;;;;0.30;0.30;;;;;;;0.35;100.00;100465.55;1781867;78;21142;-48
2021/03/14 04:41:51;;;;;;;0.10;0.10;;;;;;;0.41;100.00;100457.97;1716550;82;21589;-48
2021/03/14 04:44:52;;;;;;;1.30;0.65;;;;;;;0.49;100.00;100471.69;1727073;79;21165;-48
2021/03/14 04:47:54;;;;;;;0.20;0.20;;;;;;;0.52;100.00;100467.22;1781328;79;21138;-48
2021/03/14 04:50:56;;;;;;;0.10;0.10;;;;;;;0.59;100.00;100464.84;1793756;79;21663;-48
2021/03/14 04:53:56;;;;;;;0.62;0.60;;;;;;;0.65;100.00;100464.50;1768337;79;21169;-49
2021/03/14 04:56:57;;;;;;;0.10;0.10;;;;;;;0.70;100.00;100468.72;1761577;79;21154;-49
2021/03/14 04:59:57;;;;;;;0.40;0.25;;;;;;;0.75;100.00;100470.77;1774445;79;21561;-48
2021/03/14 05:03:01;;;;;;;1.57;0.35;;;;;;;0.82;100.00;100469.70;1766651;79;21102;-48
2021/03/14 05:06:01;;;;;;;0.10;0.10;;;;;;;0.87;100.00;100469.05;1787931;79;21544;-49
2021/03/14 05:09:01;;;;;;;0.15;0.15;;;;;;;0.93;100.00;100475.43;1773727;79;21145;-49
2021/03/14 05:12:02;;;;;;;1.35;0.37;;;;;;;0.99;100.00;100479.94;1752247;79;21141;-49
2021/03/14 05:15:02;;;;;;;0.50;0.50;;;;;;;1.03;100.00;100479.82;1772692;79;21610;-49
2021/03/14 05:18:04;;;;;;;0.42;0.42;;;;;;;1.07;100.00;100474.33;1780335;80;21114;-49
2021/03/14 05:21:05;;;;;;;0.30;0.30;;;;;;;1.13;100.00;100472.62;1743862;80;21162;-49
2021/03/14 05:24:05;;;;;;;0.20;0.20;;;;;;;1.16;100.00;100473.00;1785859;78;21150;-49
2021/03/14 05:27:08;;;;;;;0.65;0.65;;;;;;;1.21;100.00;100468.31;1771152;78;21119;-48
2021/03/14 05:30:11;;;;;;;0.17;0.17;;;;;;;1.26;100.00;100464.45;1788913;78;21110;-49
2021/03/14 05:33:12;;;;;;;0.28;0.28;;;;;;;1.27;100.00;100462.90;1797476;78;21434;-48
2021/03/14 05:36:13;;;;;;;0.33;0.33;;;;;;;1.32;100.00;100463.59;1794951;78;21142;-48
2021/03/14 05:39:15;;;;;;;0.20;0.20;;;;;;;1.36;100.00;100457.23;1786085;79;21170;-49
2021/03/14 05:42:15;;;;;;;0.13;0.13;;;;;;;1.40;100.00;100455.77;1767331;79;21156;-48
2021/03/14 05:45:18;;;;;;;0.30;0.30;;;;;;;1.45;100.00;100459.97;1773010;79;21146;-48
2021/03/14 05:48:18;;;;;;;0.25;0.25;;;;;;;1.50;100.00;100458.27;1782510;80;21126;-49
2021/03/14 05:51:29;;;;;;;0.40;0.40;;;;;;;1.54;100.00;100458.67;1797235;78;21107;-49
2021/03/14 05:54:29;;;;;;;2.08;1.17;;;;;;;1.59;100.00;100458.83;1783439;78;21038;-48
2021/03/14 05:57:30;;;;;;;0.15;0.15;;;;;;;1.66;100.00;100463.64;1787919;78;21155;-49
2021/03/14 06:00:32;;;;;;;1.52;1.42;;;;;;;1.70;100.00;100449.20;1749773;79;21113;-48
2021/03/14 06:03:33;;;;;;;0.30;0.30;;;;;;;1.75;100.00;100457.44;1800147;78;21151;-48
2021/03/14 06:06:34;;;;;;;5.83;0.57;;;;;;;1.81;100.00;100458.45;1759747;80;21119;-49
2021/03/14 06:09:36;;;;;;;0.15;0.15;;;;;;;1.87;100.00;100451.63;1780315;79;21557;-48
2021/03/14 06:12:37;;;;;;;0.42;0.42;;;;;;;1.94;100.00;100454.27;1792038;78;21142;-49
2021/03/14 06:15:37;;;;;;;0.85;0.85;;;;;;;2.01;100.00;100449.64;1767018;78;21111;-48
2021/03/14 06:18:38;;;;;;;0.20;0.20;;;;;;;2.07;100.00;100455.47;1738982;80;21197;-48
2021/03/14 06:21:39;;;;;;;0.42;0.35;;;;;;;2.13;100.00;100453.25;1755579;79;21110;-48
2021/03/14 06:24:46;;;;;;;2.70;0.72;;;;;;;2.21;100.00;100449.95;1781438;79;21203;-48
2021/03/14 06:27:53;;;;;;;0.37;0.37;;;;;;;2.28;100.00;100456.11;1784680;80;21183;-48
2021/03/14 06:30:53;;;;;;;0.30;0.30;;;;;;;2.34;100.00;100465.98;1784542;79;21125;-48
2021/03/14 06:33:55;;;;;;;0.53;0.42;;;;;;;2.41;100.00;100458.64;1798503;78;21155;-48
2021/03/14 06:36:57;;;;;;;0.75;0.57;;;;;;;2.47;100.00;100461.77;1762138;81;21134;-48
2021/03/14 06:39:58;;;;;;;0.40;0.40;;;;;;;2.52;100.00;100459.75;1786864;79;21474;-48
2021/03/14 06:42:58;;;;;;;0.98;0.93;;;;;;;2.54;100.00;100458.47;1772149;79;21474;-48
2021/03/14 06:45:59;;;;;;;1.35;1.25;;;;;;;2.58;100.00;100456.16;1813519;78;21142;-48
2021/03/14 06:49:20;;;;;;;0.08;0.08;;;;;;;2.60;100.00;100458.11;1776620;79;21503;-48
2021/03/14 06:52:21;;;;;;;0.20;0.20;;;;;;;2.66;100.00;100460.42;1775009;79;21139;-48
2021/03/14 06:55:29;;;;;;;0.30;0.30;;;;;;;2.73;100.00;100466.56;1761931;79;21187;-48
2021/03/14 06:58:40;;;;;;;1.45;0.65;;;;;;;2.84;100.00;100470.36;1768543;79;21181;-49
2021/03/14 07:01:42;;;;;;;0.80;0.50;;;;;;;2.93;100.00;100469.00;1782866;79;21138;-48
2021/03/14 07:04:51;;;;;;;0.37;0.37;;;;;;;3.01;100.00;100468.13;1798418;79;21140;-48
2021/03/14 07:07:51;;;;;;;0.28;0.28;;;;;;;3.07;100.00;100465.06;1769241;79;21226;-48
2021/03/14 07:10:53;;;;;;;1.55;1.10;;;;;;;3.14;100.00;100462.25;1761785;79;21428;-48
2021/03/14 07:13:58;;;;;;;0.78;0.75;;;;;;;3.18;100.00;100468.84;1762330;80;21648;-48
2021/03/14 07:17:04;;;;;;;0.72;0.70;;;;;;;3.23;100.00;100476.55;1797078;78;21384;-48
2021/03/14 07:20:21;;;;;;;1.12;0.88;;;;;;;3.34;100.00;100477.66;1823167;78;21652;-48
2021/03/14 07:23:21;;;;;;;2.00;0.57;;;;;;;3.47;100.00;100481.21;1794237;78;21123;-48
2021/03/14 07:26:45;;;;;;;1.55;0.90;;;;;;;3.52;100.00;100480.80;1775345;80;21142;-48
2021/03/14 07:29:46;;;;;;;0.20;0.20;;;;;;;3.62;100.00;100484.29;1778182;79;21007;-48
2021/03/14 07:32:52;;;;;;;0.70;0.70;;;;;;;3.68;100.00;100477.13;1766690;79;21183;-48
2021/03/14 07:35:53;;;;;;;0.20;0.20;;;;;;;3.70;100.00;100470.42;1753967;79;21122;-48
2021/03/14 07:38:54;;;;;;;0.10;0.10;;;;;;;3.74;100.00;100465.39;1796427;78;21158;-48
2021/03/14 07:41:54;;;;;;;0.65;0.65;;;;;;;3.75;100.00;100467.84;1789470;78;21189;-48
2021/03/14 07:44:56;;;;;;;2.45;1.35;;;;;;;3.73;100.00;100457.79;1768966;80;21153;-48
2021/03/14 07:47:56;;;;;;;2.15;1.50;;;;;;;3.72;100.00;100452.10;1788025;79;21160;-50
2021/03/14 07:50:59;;;;;;;1.85;1.67;;;;;;;3.79;100.00;100446.06;1785991;79;21134;-48
2021/03/14 07:54:13;;;;;;;0.10;0.10;;;;;;;3.85;100.00;100446.45;1794743;78;21150;-49
2021/03/14 07:57:14;;;;;;;0.30;0.30;;;;;;;3.94;100.00;100445.59;1792275;78;21158;-49
2021/03/14 08:00:41;;;;;;;0.62;0.62;;;;;;;4.05;100.00;100452.03;1791204;78;21155;-48
2021/03/14 08:03:45;;;;;;;0.17;0.10;;;;;;;4.12;100.00;100447.33;1798100;78;21142;-48
2021/03/14 08:06:56;;;;;;;0.37;0.37;;;;;;;4.20;100.00;100444.25;1776850;79;21138;-49
2021/03/14 08:09:57;;;;;;;1.30;0.40;;;;;;;4.28;100.00;100437.15;1795366;78;21142;-48
2021/03/14 08:12:57;;;;;;;0.70;0.70;;;;;;;4.40;100.00;100425.47;1796961;78;21149;-48
2021/03/14 08:16:12;;;;;;;0.20;0.20;;;;;;;4.49;99.28;100429.45;1790280;78;21155;-49
2021/03/14 08:19:19;;;;;;;0.10;0.10;;;;;;;4.52;98.87;100425.75;1801220;78;21545;-48
2021/03/14 08:22:53;;;;;;;0.10;0.10;;;;;;;4.63;98.68;100436.23;1796543;78;21100;-48
2021/03/14 08:25:55;;;;;;;1.82;1.42;;;;;;;4.72;97.96;100438.86;1774449;78;21111;-48
2021/03/14 08:29:10;;;;;;;2.00;1.60;;;;;;;4.78;97.12;100445.73;1803192;78;21177;-48
2021/03/14 08:32:13;;;;;;;1.10;1.10;;;;;;;4.79;96.74;100439.23;1761597;80;21610;-49
2021/03/14 08:35:15;;;;;;;5.72;0.30;;;;;;;4.84;95.86;100449.63;1709552;81;21171;-49
2021/03/14 08:38:54;;;;;;;0.95;0.95;;;;;;;4.85;95.31;100440.45;1771137;80;21219;-48
2021/03/14 08:42:01;;;;;;;1.40;1.30;;;;;;;4.88;95.22;100435.91;1808736;78;21414;-48
2021/03/14 08:45:04;;;;;;;2.85;1.12;;;;;;;5.03;94.76;100425.08;1787821;79;21150;-48
2021/03/14 08:48:07;;;;;;;0.88;0.42;;;;;;;5.25;94.61;100415.71;1779389;79;21111;-48
2021/03/14 08:51:12;;;;;;;0.50;0.50;;;;;;;5.49;93.88;100407.72;1768316;79;21393;-48
2021/03/14 08:54:14;;;;;;;0.30;0.30;;;;;;;5.69;92.76;100414.53;1747015;80;21109;-48
2021/03/14 08:57:17;;;;;;;0.62;0.50;;;;;;;5.90;92.42;100417.00;1733580;80;21126;-48
2021/03/14 09:00:21;;;;;;;0.50;0.50;;;;;;;6.13;91.60;100414.12;1797404;78;21503;-48
2021/03/14 09:03:22;;;;;;;1.35;1.25;;;;;;;6.33;89.70;100417.63;1781982;78;21171;-49
2021/03/14 09:06:35;;;;;;;1.63;0.83;;;;;;;6.45;88.28;100414.77;1755147;80;21130;-49
2021/03/14 09:09:38;;;;;;;4.58;1.37;;;;;;;6.46;87.54;100419.14;1776939;78;21247;-49
2021/03/14 09:12:43;;;;;;;1.00;1.00;;;;;;;6.40;86.01;100408.73;1790934;78;21149;-48
2021/03/14 09:15:55;;;;;;;1.65;1.40;;;;;;;6.38;85.90;100401.41;1775871;80;21295;-48
2021/03/14 09:19:01;;;;;;;0.15;0.15;;;;;;;6.36;85.59;100410.33;1790532;78;21490;-49
2021/03/14 09:22:12;;;;;;;1.55;1.45;;;;;;;6.37;85.57;100402.47;1789474;79;21126;-49
2021/03/14 09:25:20;;;;;;;1.75;1.02;;;;;;;6.47;85.50;100407.20;1759861;80;21138;-48
2021/03/14 09:28:20;;;;;;;1.22;1.12;;;;;;;6.61;85.12;100407.64;1763770;79;21119;-48
2021/03/14 09:31:21;;;;;;;2.70;1.60;;;;;;;6.73;84.96;100400.18;1772975;80;21162;-49
2021/03/14 09:34:27;;;;;;;1.32;1.32;;;;;;;6.88;84.62;100399.52;1764510;80;21601;-49
2021/03/14 09:37:36;;;;;;;0.42;0.37;;;;;;;7.02;83.91;100402.63;1814571;78;21142;-49
2021/03/14 09:40:57;;;;;;;1.52;1.42;;;;;;;7.12;83.38;100397.29;1796412;78;21111;-49
2021/03/14 09:44:02;;;;;;;1.22;0.93;;;;;;;7.22;82.44;100402.84;1809585;78;21146;-48
2021/03/14 09:47:19;;;;;;;0.50;0.50;;;;;;;7.27;82.22;100397.45;1771580;78;21396;-49
2021/03/14 09:50:25;;;;;;;0.93;0.93;;;;;;;7.29;81.86;100398.02;1781733;78;21117;-48
2021/03/14 09:53:28;;;;;;;1.17;1.07;;;;;;;7.25;81.14;100400.95;1783289;79;21110;-48
2021/03/14 09:56:31;;;;;;;1.32;0.98;;;;;;;7.14;80.82;100395.69;1784682;78;21143;-48
2021/03/14 10:00:06;;;;;;;0.25;0.25;;;;;;;6.92;81.06;100400.63;1859342;76;26714;-48
2021/03/14 10:03:15;;;;;;;0.85;0.47;;;;;;;6.74;81.41;100399.09;1819653;77;21466;-48
2021/03/14 10:06:19;;;;;;;1.60;1.50;;;;;;;6.60;81.83;100399.20;1834148;77;21433;-48
2021/03/14 10:09:32;;;;;;;0.30;0.30;;;;;;;6.49;82.51;100401.53;1837466;77;21585;-47
2021/03/14 10:12:35;;;;;;;0.88;0.85;;;;;;;6.48;82.95;100393.92;1828495;77;21116;-48
2021/03/14 10:15:38;;;;;;;0.95;0.95;;;;;;;6.43;83.08;100383.83;1840050;77;21099;-48
2021/03/14 10:18:40;;;;;;;0.42;0.37;;;;;;;6.34;83.53;100385.34;1818110;77;21147;-48
2021/03/14 10:21:51;;;;;;;0.70;0.68;;;;;;;6.24;83.86;100386.56;1824485;77;21098;-49
2021/03/14 10:24:57;;;;;;;0.25;0.25;;;;;;;6.14;84.22;100387.80;1836855;77;21157;-48
2021/03/14 10:28:13;;;;;;;0.95;0.95;;;;;;;6.02;84.87;100386.55;1834670;77;21564;-48
2021/03/14 10:31:22;;;;;;;0.40;0.40;;;;;;;6.02;85.29;100385.19;1830213;77;21438;-48
2021/03/14 10:34:27;;;;;;;0.85;0.85;;;;;;;6.02;85.54;100381.94;1830094;77;21902;-48
2021/03/14 10:37:40;;;;;;;0.13;0.13;;;;;;;6.02;85.87;100387.36;1833291;77;21457;-48
2021/03/14 10:40:42;;;;;;;2.87;0.42;;;;;;;5.97;86.13;100377.80;1855283;77;21567;-48
2021/03/14 10:44:05;;;;;;;0.65;0.65;;;;;;;5.95;86.58;100380.48;1857868;77;21114;-48
2021/03/14 10:47:12;;;;;;;0.75;0.75;;;;;;;5.96;86.81;100382.95;1836435;77;21542;-48
2021/03/14 10:50:26;;;;;;;0.70;0.65;;;;;;;5.95;87.01;100376.41;1850257;77;21078;-48
2021/03/14 10:53:29;;;;;;;1.25;1.25;;;;;;;5.98;87.18;100377.27;1844373;77;21122;-47
2021/03/14 10:56:48;;;;;;;0.60;0.60;;;;;;;5.94;87.17;100376.95;1817655;78;21170;-47
2021/03/14 10:59:48;;;;;;;1.37;0.65;;;;;;;5.95;87.64;100367.73;1744879;80;21130;-48
2021/03/14 11:02:56;;;;;;;4.87;2.53;;;;;;;6.05;87.78;100366.23;1771279;80;21146;-49
2021/03/14 11:05:54;;;;;;;5.30;1.90;;;;;;;6.14;87.65;100366.09;1779900;80;21083;-48
2021/03/14 11:09:08;;;;;;;3.95;1.27;;;;;;;6.15;87.67;100354.16;1804472;78;21671;-49
2021/03/14 11:12:09;;;;;;;1.45;1.05;;;;;;;6.14;87.36;100353.34;1787633;78;21017;-48
2021/03/14 11:15:13;;;;;;;0.42;0.42;;;;;;;6.10;87.49;100349.48;1773366;80;21147;-48
2021/03/14 11:18:28;;;;;;;0.10;0.10;;;;;;;6.06;87.53;100351.08;1819441;78;21114;-49
2021/03/14 11:21:31;;;;;;;0.50;0.40;;;;;;;5.95;87.73;100351.46;1791739;78;21478;-48
2021/03/14 11:24:31;;;;;;;1.00;0.72;;;;;;;5.91;87.98;100353.53;1776768;78;21131;-49
2021/03/14 11:27:33;;;;;;;1.15;0.98;;;;;;;5.87;88.35;100345.09;1807607;78;21015;-48
2021/03/14 11:30:33;;;;;;;1.47;1.02;;;;;;;5.84;88.67;100344.25;1757006;80;21189;-48
2021/03/14 11:33:34;;;;;;;3.20;1.47;;;;;;;5.80;88.98;100335.77;1747104;80;21111;-48
2021/03/14 11:36:37;;;;;;;1.27;1.17;;;;;;;5.75;89.32;100337.06;1766423;80;21418;-49
2021/03/14 11:39:40;;;;;;;1.65;1.05;;;;;;;5.71;89.65;100329.16;1769279;78;21244;-48
2021/03/14 11:42:43;;;;;;;0.45;0.45;;;;;;;5.71;90.36;100325.61;1800317;78;21177;-49
2021/03/14 11:45:46;;;;;;;3.50;0.88;;;;;;;5.77;90.86;100330.05;1794753;78;21159;-48
2021/03/14 11:48:48;;;;;;;0.75;0.50;;;;;;;5.82;90.93;100315.20;1783941;80;21072;-48
2021/03/14 11:51:49;;;;;;;1.80;1.02;;;;;;;5.82;90.92;100308.42;1810672;78;21922;-49
2021/03/14 11:54:53;;;;;;;0.30;0.30;;;;;;;5.79;90.98;100295.38;1782953;80;21171;-48
2021/03/14 11:57:53;;;;;;;0.62;0.62;;;;;;;5.76;91.59;100289.07;1790612;80;21531;-48
2021/03/14 12:00:54;;;;;;;1.27;0.62;;;;;;;5.77;92.24;100281.23;1787213;80;21158;-49
2021/03/14 12:03:57;;;;;;;0.45;0.35;;;;;;;5.82;92.65;100285.37;1785705;80;21122;-48
2021/03/14 12:06:59;;;;;;;1.05;0.95;;;;;;;5.86;92.87;100296.52;1787378;80;21429;-48
2021/03/14 12:10:01;;;;;;;0.65;0.65;;;;;;;5.88;93.17;100297.09;1784191;80;21170;-48
2021/03/14 12:13:02;;;;;;;1.77;0.90;;;;;;;5.90;93.21;100296.31;1785260;79;21123;-48
2021/03/14 12:16:03;;;;;;;1.75;0.65;;;;;;;5.91;93.26;100293.36;1788443;79;21134;-49
2021/03/14 12:19:07;;;;;;;1.45;0.93;;;;;;;5.91;93.28;100293.36;1787532;79;21150;-49
2021/03/14 12:22:09;;;;;;;1.00;1.00;;;;;;;5.91;93.32;100285.22;1801726;79;21135;-49
2021/03/14 12:25:10;;;;;;;0.65;0.65;;;;;;;5.92;93.27;100286.84;1816372;78;21538;-48
2021/03/14 12:28:13;;;;;;;1.70;1.47;;;;;;;5.90;93.20;100284.11;1775093;78;21145;-48
2021/03/14 12:31:14;;;;;;;1.77;1.42;;;;;;;5.87;93.31;100290.04;1762658;80;21138;-48
2021/03/14 12:34:15;;;;;;;1.22;0.85;;;;;;;5.88;93.49;100285.70;1789539;80;21115;-47
2021/03/14 12:37:17;;;;;;;0.45;0.45;;;;;;;5.92;93.30;100285.49;1756421;79;21141;-48
2021/03/14 12:40:20;;;;;;;1.80;0.83;;;;;;;5.88;93.27;100280.28;1775596;79;21144;-48
2021/03/14 12:43:21;;;;;;;0.17;0.17;;;;;;;5.86;93.39;100274.31;1803642;78;21517;-48
2021/03/14 12:46:22;;;;;;;0.10;0.10;;;;;;;5.87;93.31;100273.23;1766438;80;21141;-48
2021/03/14 12:49:22;;;;;;;1.12;0.95;;;;;;;5.88;93.48;100270.78;1802641;78;21125;-49
2021/03/14 12:52:24;;;;;;;0.88;0.85;;;;;;;5.92;93.70;100265.15;1799606;78;21178;-49
2021/03/14 12:55:29;;;;;;;0.47;0.47;;;;;;;5.93;93.66;100263.25;1793039;78;21122;-48
2021/03/14 12:58:30;;;;;;;0.88;0.40;;;;;;;5.93;93.70;100253.77;1790925;80;21149;-48
2021/03/14 13:01:33;;;;;;;2.30;1.27;;;;;;;5.94;93.60;100260.33;1789480;80;21130;-48
2021/03/14 13:04:35;;;;;;;3.22;0.98;;;;;;;5.92;93.56;100243.45;1821900;78;21111;-49
2021/03/14 13:07:37;;;;;;;0.85;0.78;;;;;;;5.91;93.63;100240.98;1802062;78;21418;-48
2021/03/14 13:10:40;;;;;;;1.00;0.45;;;;;;;5.93;93.71;100240.20;1794568;78;21110;-49
2021/03/14 13:13:42;;;;;;;0.93;0.85;;;;;;;5.99;93.93;100239.23;1793532;78;21159;-48
2021/03/14 13:16:44;;;;;;;1.65;0.68;;;;;;;6.09;93.89;100240.70;1809254;78;21166;-48
2021/03/14 13:19:50;;;;;;;2.25;2.05;;;;;;;6.17;93.78;100239.42;1817778;78;21135;-48
2021/03/14 13:22:53;;;;;;;1.90;1.52;;;;;;;6.28;93.57;100245.25;1790939;80;21115;-48
2021/03/14 13:25:55;;;;;;;1.37;1.27;;;;;;;6.37;93.36;100244.23;1783142;80;21514;-48
2021/03/14 13:28:56;;;;;;;2.72;1.00;;;;;;;6.49;93.10;100239.47;1801589;78;21169;-48
2021/03/14 13:31:56;;;;;;;1.95;0.98;;;;;;;6.59;92.82;100234.13;1806653;78;21174;-49
2021/03/14 13:34:59;;;;;;;0.42;0.42;;;;;;;6.70;92.06;100233.69;1799419;79;21122;-48
2021/03/14 13:38:02;;;;;;;1.85;1.70;;;;;;;6.73;91.62;100222.30;1768848;80;21385;-49
2021/03/14 13:41:03;;;;;;;1.52;1.42;;;;;;;6.76;91.08;100216.34;1778482;78;21167;-48
2021/03/14 13:44:04;;;;;;;1.00;0.62;;;;;;;6.78;90.40;100214.20;1779468;78;21167;-48
2021/03/14 13:47:06;;;;;;;0.80;0.80;;;;;;;6.78;90.28;100208.77;1778509;79;21155;-48
2021/03/14 13:50:10;;;;;;;2.92;1.95;;;;;;;6.79;89.91;100198.17;1798389;79;21096;-48
2021/03/14 13:53:11;;;;;;;1.57;1.40;;;;;;;6.81;89.66;100191.94;1769431;80;21165;-49
2021/03/14 13:56:13;;;;;;;2.58;1.07;;;;;;;6.84;89.37;100190.05;1791950;78;21160;-49
2021/03/14 13:59:17;;;;;;;7.25;1.45;;;;;;;6.85;89.06;100188.99;1764287;80;21206;-48
2021/03/14 14:02:19;;;;;;;0.60;0.60;;;;;;;6.89;88.76;100182.48;1778995;79;21518;-48
2021/03/14 14:05:25;;;;;;;4.03;3.67;;;;;;;6.92;88.56;100186.58;1760535;79;21151;-48
2021/03/14 14:08:27;;;;;;;4.92;2.52;;;;;;;6.94;88.41;100184.42;1774248;79;21147;-48
2021/03/14 14:11:32;;;;;;;1.25;0.60;;;;;;;6.97;88.16;100187.97;1767352;79;21405;-48
2021/03/14 14:14:35;;;;;;;1.45;1.32;;;;;;;6.99;87.78;100180.38;1765003;79;21446;-49
2021/03/14 14:17:40;;;;;;;6.42;2.17;;;;;;;6.97;87.38;100177.91;1774678;80;21135;-48
2021/03/14 14:20:46;;;;;;;2.35;2.15;;;;;;;6.95;87.19;100182.81;1755517;80;21124;-48